Time;durP1;ratioP1;P1;durP2;ratioP2;P2;SDS_P1;SDS_P2;PMS_P1;PMS_P2;Temp;Humidity;BMP_temperature;BMP_pressure;BME280_temperature;BME280_humidity;BME280_pressure;Samples;Min_cycle;Max_cycle;Signal;HPM_P1;HPM_P2
2023/07/29 00:00:11;;;;;;;6.20;5.60;;;;;;;;;;6228678;23;20430;-77
2023/07/29 00:02:39;;;;;;;5.83;5.23;;;;;;;;;;6225543;23;20413;-78
2023/07/29 00:05:07;;;;;;;8.17;6.50;;;;;;;;;;6226100;23;20406;-77
2023/07/29 00:07:35;;;;;;;6.13;5.33;;;;;;;;;;6223327;23;20410;-77
2023/07/29 00:10:08;;;;;;;7.20;6.50;;;;;;;;;;6229041;23;20398;-78
2023/07/29 00:12:36;;;;;;;6.53;5.83;;;;;;;;;;6226411;23;20393;-78
2023/07/29 00:15:06;;;;;;;6.40;5.40;;;;;;;;;;6226996;23;20425;-78
2023/07/29 00:17:34;;;;;;;6.70;6.00;;;;;;;;;;6222899;23;20480;-78
2023/07/29 00:20:17;;;;;;;7.20;5.97;;;;;;;;;;6228483;23;20473;-77
2023/07/29 00:22:44;;;;;;;7.23;6.13;;;;;;;;;;6227586;23;20428;-78
2023/07/29 00:25:12;;;;;;;8.70;6.53;;;;;;;;;;6228041;23;20555;-78
2023/07/29 00:27:40;;;;;;;7.47;5.80;;;;;;;;;;6226500;23;20409;-77
2023/07/29 00:30:10;;;;;;;7.47;6.17;;;;;;;;;;6228913;23;20433;-78
2023/07/29 00:32:38;;;;;;;6.73;6.07;;;;;;;;;;6224878;23;20501;-77
2023/07/29 00:35:06;;;;;;;6.30;5.47;;;;;;;;;;6226977;23;20424;-77
2023/07/29 00:37:34;;;;;;;6.37;5.77;;;;;;;;;;6226379;23;20398;-77
2023/07/29 00:40:08;;;;;;;7.60;6.33;;;;;;;;;;6226974;23;20434;-78
2023/07/29 00:42:36;;;;;;;6.87;5.50;;;;;;;;;;6230352;23;20395;-78
2023/07/29 00:45:07;;;;;;;6.70;5.80;;;;;;;;;;6227189;23;20416;-79
2023/07/29 00:47:36;;;;;;;6.77;5.87;;;;;;;;;;6227009;23;20492;-79
2023/07/29 00:50:17;;;;;;;6.83;6.00;;;;;;;;;;6231669;23;20409;-78
2023/07/29 00:52:48;;;;;;;8.83;6.10;;;;;;;;;;6227192;23;20883;-77
2023/07/29 00:55:16;;;;;;;8.13;6.07;;;;;;;;;;6231504;23;20426;-77
2023/07/29 00:57:47;;;;;;;6.90;5.30;;;;;;;;;;6225323;23;20396;-77
2023/07/29 01:00:18;;;;;;;6.73;6.13;;;;;;;;;;6231359;23;20418;-78
2023/07/29 01:02:47;;;;;;;9.70;6.90;;;;;;;;;;6231005;23;20442;-78
2023/07/29 01:05:16;;;;;;;6.43;5.83;;;;;;;;;;6233743;23;20405;-78
2023/07/29 01:07:50;;;;;;;7.47;6.30;;;;;;;;;;6229655;23;20453;-79
2023/07/29 01:10:21;;;;;;;6.90;5.63;;;;;;;;;;6233091;23;20418;-78
2023/07/29 01:12:50;;;;;;;8.10;6.40;;;;;;;;;;6231445;23;20394;-78
2023/07/29 01:15:21;;;;;;;9.23;5.20;;;;;;;;;;6231787;23;20386;-78
2023/07/29 01:17:52;;;;;;;7.50;5.63;;;;;;;;;;6228845;23;20438;-78
2023/07/29 01:20:21;;;;;;;6.77;5.90;;;;;;;;;;6230780;23;20445;-78
2023/07/29 01:22:48;;;;;;;8.83;5.93;;;;;;;;;;6225118;23;20499;-77
2023/07/29 01:25:18;;;;;;;7.97;6.03;;;;;;;;;;6227791;23;20414;-78
2023/07/29 01:27:47;;;;;;;6.43;5.77;;;;;;;;;;6224482;23;20454;-78
2023/07/29 01:30:22;;;;;;;7.60;6.33;;;;;;;;;;6231369;23;20386;-78
2023/07/29 01:32:54;;;;;;;10.53;5.30;;;;;;;;;;6224637;23;20424;-79
2023/07/29 01:35:25;;;;;;;6.40;5.80;;;;;;;;;;6228047;23;20426;-79
2023/07/29 01:37:55;;;;;;;7.17;6.13;;;;;;;;;;6223979;23;20410;-79
2023/07/29 01:40:24;;;;;;;8.97;8.03;;;;;;;;;;6224854;23;20457;-79
2023/07/29 01:42:52;;;;;;;7.00;6.30;;;;;;;;;;6229875;23;20456;-78
2023/07/29 01:45:20;;;;;;;8.30;7.10;;;;;;;;;;6232002;23;20957;-78
2023/07/29 01:47:47;;;;;;;7.13;6.43;;;;;;;;;;6231370;23;20414;-78
2023/07/29 01:50:18;;;;;;;6.70;5.87;;;;;;;;;;6231816;23;20410;-78
2023/07/29 01:52:45;;;;;;;9.00;6.93;;;;;;;;;;6231232;23;20642;-78
2023/07/29 01:55:13;;;;;;;8.13;6.37;;;;;;;;;;6232865;23;20421;-78
2023/07/29 01:57:44;;;;;;;7.40;6.13;;;;;;;;;;6234703;23;20386;-78
2023/07/29 02:00:15;;;;;;;10.57;6.50;;;;;;;;;;6227616;23;20465;-77
2023/07/29 02:02:42;;;;;;;7.20;6.20;;;;;;;;;;6224417;23;20416;-77
2023/07/29 02:05:10;;;;;;;8.53;7.47;;;;;;;;;;6226471;23;20829;-78
2023/07/29 02:07:37;;;;;;;8.17;6.90;;;;;;;;;;6228366;23;20414;-78
2023/07/29 02:10:08;;;;;;;8.30;7.43;;;;;;;;;;6225662;23;20724;-78
2023/07/29 02:12:36;;;;;;;7.10;6.40;;;;;;;;;;6227551;23;20391;-78
2023/07/29 02:15:05;;;;;;;8.97;7.67;;;;;;;;;;6225391;23;20426;-78
2023/07/29 02:17:33;;;;;;;9.17;6.97;;;;;;;;;;6223376;23;20455;-78
2023/07/29 02:20:03;;;;;;;8.53;6.07;;;;;;;;;;6225954;23;20476;-78
2023/07/29 02:22:34;;;;;;;8.43;7.13;;;;;;;;;;6224176;23;20689;-78
2023/07/29 02:25:02;;;;;;;9.23;8.20;;;;;;;;;;6225479;23;20391;-77
2023/07/29 02:27:30;;;;;;;9.73;7.77;;;;;;;;;;6223232;23;20493;-77
2023/07/29 02:29:57;;;;;;;8.70;7.80;;;;;;;;;;6225946;23;20766;-77
2023/07/29 02:32:26;;;;;;;13.40;7.83;;;;;;;;;;6222741;23;20410;-77
2023/07/29 02:34:54;;;;;;;10.50;7.83;;;;;;;;;;6225304;23;20414;-78
2023/07/29 02:37:25;;;;;;;9.63;7.50;;;;;;;;;;6223968;23;20994;-77
2023/07/29 02:39:52;;;;;;;11.50;8.50;;;;;;;;;;6226384;23;20430;-77
2023/07/29 02:42:20;;;;;;;9.60;8.37;;;;;;;;;;6228896;23;20414;-77
2023/07/29 02:44:48;;;;;;;9.33;7.03;;;;;;;;;;6228519;23;20417;-78
2023/07/29 02:47:15;;;;;;;11.50;7.77;;;;;;;;;;6229833;23;20421;-78
2023/07/29 02:49:45;;;;;;;12.50;9.63;;;;;;;;;;6223857;23;20434;-76
2023/07/29 02:52:12;;;;;;;11.00;8.47;;;;;;;;;;6227307;23;20437;-78
2023/07/29 02:54:40;;;;;;;10.23;8.10;;;;;;;;;;6225766;23;20485;-78
2023/07/29 02:57:07;;;;;;;9.00;7.87;;;;;;;;;;6229194;23;20428;-79
2023/07/29 02:59:35;;;;;;;10.97;8.73;;;;;;;;;;6230027;23;20442;-78
2023/07/29 03:02:02;;;;;;;8.43;7.50;;;;;;;;;;6230187;23;20411;-79
2023/07/29 03:04:30;;;;;;;8.70;7.80;;;;;;;;;;6230715;23;20410;-79
2023/07/29 03:06:59;;;;;;;11.03;7.33;;;;;;;;;;6230915;23;20398;-78
2023/07/29 03:09:27;;;;;;;10.50;8.77;;;;;;;;;;6235308;23;20458;-78
2023/07/29 03:11:54;;;;;;;10.70;8.60;;;;;;;;;;6230941;23;20421;-78
2023/07/29 03:14:22;;;;;;;11.90;9.37;;;;;;;;;;6232822;23;20424;-77
2023/07/29 03:16:50;;;;;;;10.63;8.07;;;;;;;;;;6231126;23;20425;-79
2023/07/29 03:19:18;;;;;;;10.27;8.30;;;;;;;;;;6232955;23;20748;-80
2023/07/29 03:21:45;;;;;;;10.33;8.70;;;;;;;;;;6229491;23;20433;-78
2023/07/29 03:24:14;;;;;;;11.63;9.47;;;;;;;;;;6231388;23;20426;-78
2023/07/29 03:26:42;;;;;;;11.67;8.97;;;;;;;;;;6231917;23;20453;-77
2023/07/29 03:29:10;;;;;;;14.83;9.40;;;;;;;;;;6231518;23;20424;-78
2023/07/29 03:31:40;;;;;;;13.53;9.20;;;;;;;;;;6232147;23;20414;-79
2023/07/29 03:34:11;;;;;;;11.47;9.83;;;;;;;;;;6226321;23;20501;-76
2023/07/29 03:36:38;;;;;;;11.27;8.63;;;;;;;;;;6229784;23;20418;-79
2023/07/29 03:39:07;;;;;;;11.90;9.50;;;;;;;;;;6231557;23;20448;-78
2023/07/29 03:41:36;;;;;;;15.93;11.20;;;;;;;;;;6228798;23;20481;-80
2023/07/29 03:44:05;;;;;;;13.47;10.97;;;;;;;;;;6232397;23;20414;-79
2023/07/29 03:46:33;;;;;;;11.47;10.10;;;;;;;;;;6228087;23;20496;-79
2023/07/29 03:49:00;;;;;;;12.77;10.27;;;;;;;;;;6231967;23;20391;-78
2023/07/29 03:51:28;;;;;;;11.70;9.83;;;;;;;;;;6228977;23;20394;-79
2023/07/29 03:53:55;;;;;;;11.90;9.80;;;;;;;;;;6227283;23;20438;-79
2023/07/29 03:56:23;;;;;;;10.27;8.57;;;;;;;;;;6231197;23;20410;-79
2023/07/29 03:58:51;;;;;;;10.50;9.20;;;;;;;;;;6227383;23;20816;-78
2023/07/29 04:01:19;;;;;;;11.27;8.80;;;;;;;;;;6231616;23;20650;-77
2023/07/29 04:03:47;;;;;;;15.20;9.23;;;;;;;;;;6226414;23;20390;-78
2023/07/29 04:06:14;;;;;;;10.93;9.53;;;;;;;;;;6225876;23;20394;-77
2023/07/29 04:08:42;;;;;;;11.97;10.77;;;;;;;;;;6230259;23;20418;-79
2023/07/29 04:11:10;;;;;;;15.43;10.40;;;;;;;;;;6230648;23;20769;-78
2023/07/29 04:13:38;;;;;;;11.67;9.70;;;;;;;;;;6231785;23;20421;-79
2023/07/29 04:16:07;;;;;;;10.97;9.70;;;;;;;;;;6231682;23;20394;-79
2023/07/29 04:18:35;;;;;;;10.40;9.30;;;;;;;;;;6228934;23;20395;-77
2023/07/29 04:21:03;;;;;;;12.10;10.37;;;;;;;;;;6226433;23;20442;-78
2023/07/29 04:23:30;;;;;;;11.30;10.10;;;;;;;;;;6227979;23;20414;-78
2023/07/29 04:25:58;;;;;;;12.23;10.40;;;;;;;;;;6222931;23;20478;-78
2023/07/29 04:28:26;;;;;;;13.87;11.17;;;;;;;;;;6221068;23;20574;-79
2023/07/29 04:30:55;;;;;;;15.37;9.47;;;;;;;;;;6225617;23;20421;-77
2023/07/29 04:33:24;;;;;;;13.60;9.50;;;;;;;;;;6230613;23;20390;-79
2023/07/29 04:35:51;;;;;;;11.43;9.70;;;;;;;;;;6231127;23;20418;-79
2023/07/29 04:38:19;;;;;;;14.60;10.10;;;;;;;;;;6231197;23;20449;-78
2023/07/29 04:40:46;;;;;;;22.83;11.00;;;;;;;;;;6228535;23;20493;-78
2023/07/29 04:43:14;;;;;;;13.37;9.70;;;;;;;;;;6231713;23;20475;-78
2023/07/29 04:45:44;;;;;;;13.37;10.30;;;;;;;;;;6229180;23;20390;-78
2023/07/29 04:48:12;;;;;;;12.50;10.30;;;;;;;;;;6228783;23;20402;-77
2023/07/29 04:50:41;;;;;;;12.50;11.20;;;;;;;;;;6228946;23;20406;-77
2023/07/29 04:53:08;;;;;;;11.80;10.03;;;;;;;;;;6224841;23;20469;-76
2023/07/29 04:55:36;;;;;;;13.87;10.87;;;;;;;;;;6224853;23;20417;-78
2023/07/29 04:58:03;;;;;;;14.27;10.17;;;;;;;;;;6228245;23;20399;-79
2023/07/29 05:00:31;;;;;;;12.37;9.50;;;;;;;;;;6231690;23;20851;-76
2023/07/29 05:02:58;;;;;;;12.80;10.87;;;;;;;;;;6233943;23;20425;-79
2023/07/29 05:05:26;;;;;;;12.60;8.67;;;;;;;;;;6231445;23;20414;-79
2023/07/29 05:07:56;;;;;;;11.63;9.90;;;;;;;;;;6231152;23;20472;-78
2023/07/29 05:10:23;;;;;;;12.57;9.90;;;;;;;;;;6234694;23;20394;-79
2023/07/29 05:12:51;;;;;;;11.50;9.43;;;;;;;;;;6225734;23;20476;-80
2023/07/29 05:15:19;;;;;;;13.30;10.60;;;;;;;;;;6224953;23;20398;-78
2023/07/29 05:17:47;;;;;;;14.30;10.00;;;;;;;;;;6228357;23;20428;-77
2023/07/29 05:20:18;;;;;;;9.83;8.83;;;;;;;;;;6227598;23;20827;-79
2023/07/29 05:22:46;;;;;;;15.23;11.63;;;;;;;;;;6223509;23;20529;-79
2023/07/29 05:25:15;;;;;;;12.87;11.43;;;;;;;;;;6226769;23;20493;-79
2023/07/29 05:27:43;;;;;;;14.03;11.40;;;;;;;;;;6226710;23;20797;-77
2023/07/29 05:30:11;;;;;;;11.07;9.80;;;;;;;;;;6221303;23;20399;-79
2023/07/29 05:32:39;;;;;;;10.00;9.00;;;;;;;;;;6229006;23;20580;-79
2023/07/29 05:35:07;;;;;;;18.63;9.20;;;;;;;;;;6229430;23;20426;-77
2023/07/29 05:37:35;;;;;;;11.30;9.43;;;;;;;;;;6231873;23;20422;-78
2023/07/29 05:40:09;;;;;;;9.70;8.60;;;;;;;;;;6232386;23;20410;-79
2023/07/29 05:42:38;;;;;;;9.40;8.50;;;;;;;;;;6225626;23;20389;-79
2023/07/29 05:45:10;;;;;;;10.57;9.47;;;;;;;;;;6224815;23;20457;-78
2023/07/29 05:47:38;;;;;;;9.40;8.30;;;;;;;;;;6222446;23;20418;-77
2023/07/29 05:50:09;;;;;;;9.57;8.43;;;;;;;;;;6224011;23;20420;-78
2023/07/29 05:52:38;;;;;;;8.83;7.10;;;;;;;;;;6223899;23;20753;-79
2023/07/29 05:55:09;;;;;;;9.10;7.53;;;;;;;;;;6219765;23;20972;-78
2023/07/29 05:57:38;;;;;;;7.90;7.10;;;;;;;;;;6225767;23;20391;-78
2023/07/29 06:00:09;;;;;;;8.80;6.80;;;;;;;;;;6223603;23;20635;-79
2023/07/29 06:02:37;;;;;;;8.20;6.70;;;;;;;;;;6222626;23;20747;-77
2023/07/29 06:05:05;;;;;;;8.70;6.93;;;;;;;;;;6217620;23;20425;-77
2023/07/29 06:07:33;;;;;;;8.40;7.60;;;;;;;;;;6225269;23;20413;-77
2023/07/29 06:10:10;;;;;;;11.70;6.60;;;;;;;;;;6224925;23;20459;-77
2023/07/29 06:12:40;;;;;;;8.60;5.87;;;;;;;;;;6223394;23;20703;-78
2023/07/29 06:15:08;;;;;;;10.57;5.80;;;;;;;;;;6222357;23;20457;-77
2023/07/29 06:17:36;;;;;;;8.23;6.20;;;;;;;;;;6224809;23;20403;-78
2023/07/29 06:20:10;;;;;;;9.60;6.50;;;;;;;;;;6224505;23;20414;-77
2023/07/29 06:22:40;;;;;;;9.37;7.77;;;;;;;;;;6232455;23;20480;-79
2023/07/29 06:25:09;;;;;;;10.10;7.50;;;;;;;;;;6231890;23;20438;-77
2023/07/29 06:27:36;;;;;;;8.67;7.80;;;;;;;;;;6230093;23;20509;-78
2023/07/29 06:30:15;;;;;;;9.07;7.53;;;;;;;;;;6231247;23;20399;-78
2023/07/29 06:32:42;;;;;;;11.07;7.33;;;;;;;;;;6233001;23;20438;-78
2023/07/29 06:35:10;;;;;;;8.73;7.23;;;;;;;;;;6230235;23;20442;-78
2023/07/29 06:37:38;;;;;;;8.53;7.63;;;;;;;;;;6230573;23;20410;-78
2023/07/29 06:40:11;;;;;;;8.27;7.20;;;;;;;;;;6233614;23;20436;-77
2023/07/29 06:42:40;;;;;;;7.93;7.13;;;;;;;;;;6222576;23;20513;-78
2023/07/29 06:45:11;;;;;;;8.30;7.40;;;;;;;;;;6220293;23;20773;-79
2023/07/29 06:47:40;;;;;;;7.57;6.87;;;;;;;;;;6234822;23;20477;-79
2023/07/29 06:50:10;;;;;;;8.97;7.37;;;;;;;;;;6231438;23;20429;-78
2023/07/29 06:52:38;;;;;;;9.67;7.93;;;;;;;;;;6227521;23;20402;-76
2023/07/29 06:55:06;;;;;;;8.50;6.20;;;;;;;;;;6222438;23;20529;-77
2023/07/29 06:57:33;;;;;;;8.00;5.77;;;;;;;;;;6224756;23;20511;-77
2023/07/29 07:00:06;;;;;;;7.17;5.67;;;;;;;;;;6226886;23;20459;-77
2023/07/29 07:02:34;;;;;;;14.03;8.53;;;;;;;;;;6226065;23;20473;-77
2023/07/29 07:05:03;;;;;;;6.87;5.27;;;;;;;;;;6220441;23;20424;-77
2023/07/29 07:07:31;;;;;;;5.60;4.93;;;;;;;;;;6219948;23;20417;-77
2023/07/29 07:10:00;;;;;;;6.30;4.97;;;;;;;;;;6222523;23;20454;-78
2023/07/29 07:12:28;;;;;;;8.10;5.60;;;;;;;;;;6226076;23;20402;-77
2023/07/29 07:14:58;;;;;;;6.27;5.30;;;;;;;;;;6222382;23;20402;-79
2023/07/29 07:17:26;;;;;;;6.43;5.30;;;;;;;;;;6225572;23;20409;-78
2023/07/29 07:19:54;;;;;;;6.03;4.70;;;;;;;;;;6232557;23;20414;-77
2023/07/29 07:22:23;;;;;;;5.07;3.80;;;;;;;;;;6223869;23;20480;-78
2023/07/29 07:24:51;;;;;;;5.97;3.97;;;;;;;;;;6230923;23;20420;-78
2023/07/29 07:27:19;;;;;;;4.73;3.50;;;;;;;;;;6227799;23;20405;-78
2023/07/29 07:29:47;;;;;;;4.80;3.37;;;;;;;;;;6229070;23;20428;-79
2023/07/29 07:32:15;;;;;;;4.00;3.60;;;;;;;;;;6229305;23;20409;-78
2023/07/29 07:34:44;;;;;;;4.70;3.10;;;;;;;;;;6226120;23;20402;-77
2023/07/29 07:37:11;;;;;;;4.17;2.73;;;;;;;;;;6223446;23;20684;-78
2023/07/29 07:39:40;;;;;;;4.50;2.90;;;;;;;;;;6228365;23;20402;-77
2023/07/29 07:42:08;;;;;;;3.40;2.37;;;;;;;;;;6219589;23;20643;-78
2023/07/29 07:44:38;;;;;;;4.27;2.50;;;;;;;;;;6221165;23;20689;-76
2023/07/29 07:47:07;;;;;;;3.37;2.47;;;;;;;;;;6227864;23;20402;-77
2023/07/29 07:49:37;;;;;;;5.70;2.93;;;;;;;;;;6228859;23;20546;-78
2023/07/29 07:52:04;;;;;;;5.13;3.57;;;;;;;;;;6227858;23;20473;-78
2023/07/29 07:54:32;;;;;;;3.10;2.70;;;;;;;;;;6227466;23;20430;-78
2023/07/29 07:57:01;;;;;;;3.83;2.90;;;;;;;;;;6225847;23;20394;-78
2023/07/29 07:59:28;;;;;;;4.83;2.47;;;;;;;;;;6222198;23;20875;-77
2023/07/29 08:02:12;;;;;;;3.30;2.60;;;;;;;;;;6225854;23;20497;-78
2023/07/29 08:04:40;;;;;;;3.43;2.80;;;;;;;;;;6223097;23;20425;-78
2023/07/29 08:07:14;;;;;;;3.80;2.83;;;;;;;;;;6225429;23;20519;-76
2023/07/29 08:09:42;;;;;;;3.80;3.50;;;;;;;;;;6224125;23;20744;-77
2023/07/29 08:12:11;;;;;;;4.50;3.50;;;;;;;;;;6225239;23;20414;-79
2023/07/29 08:14:40;;;;;;;3.60;3.27;;;;;;;;;;6227329;23;20414;-78
2023/07/29 08:17:08;;;;;;;10.27;4.20;;;;;;;;;;6229620;23;20414;-77
2023/07/29 08:19:36;;;;;;;5.87;4.17;;;;;;;;;;6228765;23;20410;-77
2023/07/29 08:22:04;;;;;;;9.80;8.80;;;;;;;;;;6223405;23;20433;-78
2023/07/29 08:24:33;;;;;;;5.73;4.50;;;;;;;;;;6222267;23;20647;-78
2023/07/29 08:27:05;;;;;;;4.23;3.23;;;;;;;;;;6220373;23;20496;-79
2023/07/29 08:29:45;;;;;;;3.50;3.20;;;;;;;;;;6218895;23;20478;-78
2023/07/29 08:32:16;;;;;;;4.93;4.17;;;;;;;;;;6221044;23;20474;-78
2023/07/29 08:34:44;;;;;;;5.33;3.60;;;;;;;;;;6223978;23;20505;-78
2023/07/29 08:37:13;;;;;;;4.03;3.70;;;;;;;;;;6226175;23;20510;-78
2023/07/29 08:39:42;;;;;;;3.70;3.23;;;;;;;;;;6220983;23;20524;-77
2023/07/29 08:42:13;;;;;;;4.70;4.30;;;;;;;;;;6220028;23;20468;-80
2023/07/29 08:44:43;;;;;;;4.70;4.20;;;;;;;;;;6222580;23;20788;-78
2023/07/29 08:47:13;;;;;;;6.23;4.57;;;;;;;;;;6225349;23;20682;-78
2023/07/29 08:49:41;;;;;;;6.40;5.00;;;;;;;;;;6224884;23;20493;-79
2023/07/29 08:52:16;;;;;;;5.43;4.77;;;;;;;;;;6224512;23;20540;-78
2023/07/29 08:54:49;;;;;;;6.00;5.40;;;;;;;;;;6225326;23;20440;-78
2023/07/29 08:57:17;;;;;;;6.47;5.77;;;;;;;;;;6224011;23;20421;-79
2023/07/29 08:59:53;;;;;;;11.93;5.87;;;;;;;;;;6226148;23;20425;-77
2023/07/29 09:02:20;;;;;;;6.43;5.80;;;;;;;;;;6229746;23;20541;-79
2023/07/29 09:04:49;;;;;;;9.13;7.30;;;;;;;;;;6228824;23;20409;-77
2023/07/29 09:07:20;;;;;;;8.90;6.60;;;;;;;;;;6227211;23;20934;-79
2023/07/29 09:09:48;;;;;;;10.10;8.03;;;;;;;;;;6228333;23;20402;-79
2023/07/29 09:12:24;;;;;;;9.10;8.17;;;;;;;;;;6223217;23;20407;-77
2023/07/29 09:15:06;;;;;;;9.50;8.20;;;;;;;;;;6221171;23;20444;-77
2023/07/29 09:17:36;;;;;;;8.57;7.70;;;;;;;;;;6226862;23;20440;-77
2023/07/29 09:20:12;;;;;;;11.27;8.03;;;;;;;;;;6224735;23;20517;-78
2023/07/29 09:22:41;;;;;;;8.60;7.60;;;;;;;;;;6219865;23;20449;-77
2023/07/29 09:25:10;;;;;;;10.60;9.07;;;;;;;;;;6228370;23;20398;-78
2023/07/29 09:27:39;;;;;;;12.03;9.63;;;;;;;;;;6220158;23;20484;-77
2023/07/29 09:30:17;;;;;;;11.57;8.80;;;;;;;;;;6224522;23;20457;-78
2023/07/29 09:32:44;;;;;;;8.80;5.97;;;;;;;;;;6219492;23;20414;-78
2023/07/29 09:35:14;;;;;;;6.03;4.83;;;;;;;;;;6218617;23;20418;-78
2023/07/29 09:37:47;;;;;;;4.83;4.30;;;;;;;;;;6225525;23;20480;-77
2023/07/29 09:40:21;;;;;;;7.47;4.57;;;;;;;;;;6221149;23;20494;-78
2023/07/29 09:43:13;;;;;;;4.00;3.47;;;;;;;;;;6219738;23;20465;-77
2023/07/29 09:45:42;;;;;;;5.60;4.10;;;;;;;;;;6218776;23;20406;-77
2023/07/29 09:48:10;;;;;;;3.73;3.27;;;;;;;;;;6217814;23;20421;-77
2023/07/29 09:50:38;;;;;;;4.63;3.73;;;;;;;;;;6220402;23;20411;-79
2023/07/29 09:53:09;;;;;;;6.30;4.07;;;;;;;;;;6221065;23;21075;-78
2023/07/29 09:55:42;;;;;;;6.60;4.70;;;;;;;;;;6226578;23;20445;-78
2023/07/29 09:58:10;;;;;;;8.60;5.03;;;;;;;;;;6223291;23;20834;-78
2023/07/29 10:00:39;;;;;;;9.20;7.23;;;;;;;;;;6219346;23;20395;-76
2023/07/29 10:03:11;;;;;;;9.27;7.73;;;;;;;;;;6217470;23;21040;-77
2023/07/29 10:05:39;;;;;;;16.53;14.60;;;;;;;;;;6225659;23;20422;-78
2023/07/29 10:08:09;;;;;;;14.17;11.80;;;;;;;;;;6224133;23;20513;-78
2023/07/29 10:10:39;;;;;;;52.37;44.53;;;;;;;;;;6223908;23;20414;-78
2023/07/29 10:13:08;;;;;;;18.73;15.53;;;;;;;;;;6222695;23;20414;-77
2023/07/29 10:15:35;;;;;;;16.37;13.87;;;;;;;;;;6219965;23;20413;-77
2023/07/29 10:18:04;;;;;;;23.77;17.70;;;;;;;;;;6222876;23;20453;-78
2023/07/29 10:20:35;;;;;;;10.17;9.17;;;;;;;;;;6219844;23;20430;-77
2023/07/29 10:23:07;;;;;;;12.60;10.60;;;;;;;;;;6191633;23;20453;-76
2023/07/29 10:25:38;;;;;;;12.37;10.37;;;;;;;;;;6216652;23;20399;-78
2023/07/29 10:28:06;;;;;;;12.90;11.50;;;;;;;;;;6218355;23;20445;-76
2023/07/29 10:30:37;;;;;;;11.57;10.37;;;;;;;;;;6218865;23;20485;-78
2023/07/29 10:33:06;;;;;;;12.30;10.80;;;;;;;;;;6223463;23;20418;-76
2023/07/29 10:35:40;;;;;;;10.83;9.73;;;;;;;;;;6221013;23;20486;-77
2023/07/29 10:38:08;;;;;;;10.20;9.20;;;;;;;;;;6222513;23;20414;-77
2023/07/29 10:40:47;;;;;;;9.90;8.90;;;;;;;;;;6223359;23;20410;-77
2023/07/29 10:43:20;;;;;;;12.40;11.00;;;;;;;;;;6217633;23;20541;-78
2023/07/29 10:45:48;;;;;;;13.23;10.60;;;;;;;;;;6219959;23;20401;-78
2023/07/29 10:48:36;;;;;;;11.13;9.93;;;;;;;;;;6220069;23;20395;-78
2023/07/29 10:51:18;;;;;;;11.10;10.00;;;;;;;;;;6220322;23;20708;-77
2023/07/29 10:53:48;;;;;;;15.30;10.00;;;;;;;;;;6222846;23;20442;-78
2023/07/29 10:56:26;;;;;;;9.60;8.63;;;;;;;;;;6223590;23;20451;-79
2023/07/29 10:58:53;;;;;;;11.43;10.30;;;;;;;;;;6219396;23;20478;-78
2023/07/29 11:01:28;;;;;;;10.00;9.00;;;;;;;;;;6221634;23;20717;-78
2023/07/29 11:04:20;;;;;;;11.90;9.90;;;;;;;;;;6225028;23;20416;-78
2023/07/29 11:07:23;;;;;;;10.60;9.60;;;;;;;;;;6186741;23;20406;-78
2023/07/29 11:09:56;;;;;;;16.70;15.03;;;;;;;;;;6073456;23;20410;-77
2023/07/29 11:12:37;;;;;;;12.27;10.20;;;;;;;;;;6070175;23;20402;-78
2023/07/29 11:15:06;;;;;;;10.83;9.53;;;;;;;;;;6156049;23;20512;-78
2023/07/29 11:17:35;;;;;;;10.70;9.60;;;;;;;;;;6218744;23;20430;-78
2023/07/29 11:20:07;;;;;;;11.03;9.97;;;;;;;;;;6219070;23;20375;-78
2023/07/29 11:22:42;;;;;;;10.83;9.83;;;;;;;;;;6219815;23;21054;-78
2023/07/29 11:25:16;;;;;;;11.97;9.30;;;;;;;;;;6220111;23;20389;-77
2023/07/29 11:27:43;;;;;;;10.07;9.17;;;;;;;;;;6220373;23;20708;-77
2023/07/29 11:30:16;;;;;;;11.13;9.23;;;;;;;;;;6219613;23;20798;-78
2023/07/29 11:32:46;;;;;;;10.23;9.30;;;;;;;;;;6224303;23;20429;-78
2023/07/29 11:35:16;;;;;;;17.63;15.83;;;;;;;;;;6221924;23;20498;-77
2023/07/29 11:37:46;;;;;;;16.67;14.90;;;;;;;;;;6224216;23;20389;-78
2023/07/29 11:40:18;;;;;;;11.50;10.50;;;;;;;;;;6228758;23;20438;-79
2023/07/29 11:42:47;;;;;;;12.27;11.03;;;;;;;;;;6219868;23;20519;-77
2023/07/29 11:45:18;;;;;;;9.50;8.57;;;;;;;;;;6221371;23;20426;-77
2023/07/29 11:47:48;;;;;;;8.80;8.00;;;;;;;;;;6224575;23;20418;-79
2023/07/29 11:50:22;;;;;;;8.47;7.67;;;;;;;;;;6217792;23;20436;-77
2023/07/29 11:52:50;;;;;;;8.50;7.70;;;;;;;;;;6219587;23;20424;-78
2023/07/29 11:55:19;;;;;;;9.23;8.33;;;;;;;;;;6218972;23;20400;-77
2023/07/29 11:57:54;;;;;;;7.70;7.00;;;;;;;;;;6220974;23;20466;-77
2023/07/29 12:00:22;;;;;;;7.97;7.27;;;;;;;;;;6221505;23;20505;-78
2023/07/29 12:02:53;;;;;;;7.20;6.50;;;;;;;;;;6227185;23;20441;-77
2023/07/29 12:05:26;;;;;;;9.23;7.80;;;;;;;;;;6222486;23;20420;-79
2023/07/29 12:07:54;;;;;;;8.23;7.43;;;;;;;;;;6217875;23;20481;-78
2023/07/29 12:10:26;;;;;;;7.97;7.17;;;;;;;;;;6231361;23;20573;-79
2023/07/29 12:12:57;;;;;;;12.20;7.67;;;;;;;;;;6229364;23;20480;-78
2023/07/29 12:15:25;;;;;;;8.43;7.10;;;;;;;;;;6234966;23;20402;-79
2023/07/29 12:17:59;;;;;;;5.90;5.40;;;;;;;;;;6226370;23;20461;-80
2023/07/29 12:20:31;;;;;;;7.23;6.63;;;;;;;;;;6229608;23;20410;-77
2023/07/29 12:23:01;;;;;;;5.27;4.77;;;;;;;;;;6218577;23;20439;-77
2023/07/29 12:25:36;;;;;;;6.47;5.13;;;;;;;;;;6215707;23;20417;-78
2023/07/29 12:28:05;;;;;;;5.40;4.90;;;;;;;;;;6218740;23;20699;-77
2023/07/29 12:30:35;;;;;;;4.40;4.00;;;;;;;;;;6220343;23;20473;-77
2023/07/29 12:33:03;;;;;;;7.40;6.70;;;;;;;;;;6223653;23;20413;-78
2023/07/29 12:35:38;;;;;;;4.50;4.10;;;;;;;;;;6224117;23;20440;-78
2023/07/29 12:40:53;;;;;;;4.43;4.03;;;;;;;;;;6218961;23;20477;-78
2023/07/29 12:43:21;;;;;;;4.67;3.57;;;;;;;;;;6221935;23;20540;-77
2023/07/29 12:45:52;;;;;;;7.10;4.43;;;;;;;;;;6219419;23;20553;-77
2023/07/29 12:48:21;;;;;;;5.70;3.90;;;;;;;;;;6223751;23;20448;-79
2023/07/29 12:50:53;;;;;;;5.23;3.30;;;;;;;;;;6220351;23;20460;-77
2023/07/29 12:53:21;;;;;;;4.20;3.40;;;;;;;;;;6222680;23;20504;-78
2023/07/29 12:55:52;;;;;;;7.23;5.87;;;;;;;;;;6220603;23;20394;-79
2023/07/29 12:58:24;;;;;;;5.70;4.30;;;;;;;;;;6224218;23;20805;-79
2023/07/29 13:00:56;;;;;;;5.43;3.43;;;;;;;;;;6226664;23;20497;-77
2023/07/29 13:03:24;;;;;;;5.43;2.70;;;;;;;;;;6220024;23;20482;-78
2023/07/29 13:06:02;;;;;;;3.67;2.97;;;;;;;;;;6220094;23;20410;-76
2023/07/29 13:08:33;;;;;;;3.57;3.20;;;;;;;;;;6223577;23;20421;-79
2023/07/29 13:11:09;;;;;;;3.20;2.60;;;;;;;;;;6219210;23;20636;-79
2023/07/29 13:13:38;;;;;;;3.70;2.80;;;;;;;;;;6222375;23;20454;-78
2023/07/29 13:16:11;;;;;;;4.73;3.20;;;;;;;;;;6220197;23;20456;-78
2023/07/29 13:18:44;;;;;;;2.80;2.10;;;;;;;;;;6225480;23;20418;-78
2023/07/29 13:21:12;;;;;;;2.87;2.53;;;;;;;;;;6223400;23;20409;-77
2023/07/29 13:23:40;;;;;;;3.10;2.60;;;;;;;;;;6224495;23;20499;-77
2023/07/29 13:26:11;;;;;;;3.70;2.90;;;;;;;;;;6222354;23;20468;-77
2023/07/29 13:28:51;;;;;;;2.73;2.10;;;;;;;;;;6221988;23;20407;-77
2023/07/29 13:31:22;;;;;;;2.73;2.10;;;;;;;;;;6222008;23;20783;-76
2023/07/29 13:33:50;;;;;;;2.80;1.93;;;;;;;;;;6224681;23;20409;-78
2023/07/29 13:36:19;;;;;;;3.20;2.50;;;;;;;;;;6225251;23;20992;-77
2023/07/29 13:38:47;;;;;;;4.63;2.33;;;;;;;;;;6228153;23;20428;-78
2023/07/29 13:41:21;;;;;;;2.60;2.00;;;;;;;;;;6224963;23;20402;-78
2023/07/29 13:43:52;;;;;;;3.13;2.60;;;;;;;;;;6228679;23;20421;-78
2023/07/29 13:46:21;;;;;;;3.20;1.90;;;;;;;;;;6225160;23;20465;-76
2023/07/29 13:48:49;;;;;;;3.20;1.83;;;;;;;;;;6229719;23;20423;-78
2023/07/29 13:51:19;;;;;;;3.03;1.90;;;;;;;;;;6226177;23;20461;-77
2023/07/29 13:53:47;;;;;;;3.37;2.10;;;;;;;;;;6225763;23;20441;-77
2023/07/29 13:56:14;;;;;;;2.57;1.83;;;;;;;;;;6223276;23;20414;-77
2023/07/29 13:58:46;;;;;;;3.40;1.57;;;;;;;;;;6226284;23;20426;-77
2023/07/29 14:01:15;;;;;;;2.40;1.70;;;;;;;;;;6226860;23;20390;-78
2023/07/29 14:03:43;;;;;;;2.40;1.60;;;;;;;;;;6223203;23;20541;-78
2023/07/29 14:06:10;;;;;;;2.43;1.60;;;;;;;;;;6224927;23;20490;-79
2023/07/29 14:08:40;;;;;;;2.60;1.70;;;;;;;;;;6219957;23;20407;-77
2023/07/29 14:11:08;;;;;;;4.90;1.80;;;;;;;;;;6225326;23;20425;-78
2023/07/29 14:13:35;;;;;;;2.93;2.10;;;;;;;;;;6224041;23;20423;-78
2023/07/29 14:16:03;;;;;;;2.00;1.30;;;;;;;;;;6227138;23;20421;-78
2023/07/29 14:18:32;;;;;;;2.70;1.77;;;;;;;;;;6224865;23;20410;-78
2023/07/29 14:21:01;;;;;;;3.50;1.67;;;;;;;;;;6220327;23;20421;-77
2023/07/29 14:23:30;;;;;;;3.00;2.40;;;;;;;;;;6220762;23;20488;-78
2023/07/29 14:25:57;;;;;;;2.97;2.53;;;;;;;;;;6213256;23;20397;-77
2023/07/29 14:28:25;;;;;;;2.80;1.73;;;;;;;;;;6219197;23;20478;-78
2023/07/29 14:30:52;;;;;;;2.50;1.50;;;;;;;;;;6217062;23;20475;-77
2023/07/29 14:33:20;;;;;;;3.50;2.23;;;;;;;;;;6220109;23;20451;-78
2023/07/29 14:35:49;;;;;;;3.70;1.80;;;;;;;;;;6217175;23;20426;-78
2023/07/29 14:38:17;;;;;;;2.30;1.60;;;;;;;;;;6216355;23;20413;-78
2023/07/29 14:40:44;;;;;;;2.53;1.53;;;;;;;;;;6220542;23;20686;-78
2023/07/29 14:43:12;;;;;;;3.33;1.47;;;;;;;;;;6219841;23;20433;-78
2023/07/29 14:45:39;;;;;;;2.63;1.80;;;;;;;;;;6222932;23;20410;-79
2023/07/29 14:48:07;;;;;;;3.33;1.50;;;;;;;;;;6225810;23;20418;-78
2023/07/29 14:50:35;;;;;;;2.70;2.20;;;;;;;;;;6221555;23;20478;-78
2023/07/29 14:53:04;;;;;;;3.17;1.93;;;;;;;;;;6216790;23;20400;-78